Time;durP1;ratioP1;P1;durP2;ratioP2;P2;SDS_P1;SDS_P2;PMS_P1;PMS_P2;Temp;Humidity;BMP_temperature;BMP_pressure;BME280_temperature;BME280_humidity;BME280_pressure;Samples;Min_cycle;Max_cycle;Signal;HPM_P1;HPM_P2
2022/07/31 00:00:26;;;;;;;1.10;0.40;;;20.50;92.20;;;;;;4933925;28;20035;-87
2022/07/31 00:03:01;;;;;;;1.33;0.70;;;20.10;92.40;;;;;;4934654;28;20516;-87
2022/07/31 00:05:39;;;;;;;1.00;0.40;;;20.10;92.40;;;;;;4943492;28;20045;-87
2022/07/31 00:08:34;;;;;;;0.88;0.40;;;20.10;92.40;;;;;;4957850;28;20031;-87
2022/07/31 00:11:45;;;;;;;;;;;;;;;;;;;;;
2022/07/31 00:14:20;;;;;;;2.88;0.90;;;20.00;93.30;;;;;;4956383;28;20382;-87
2022/07/31 00:17:27;;;;;;;1.10;0.50;;;20.00;94.20;;;;;;4953495;28;20102;-86
2022/07/31 00:19:56;;;;;;;1.58;0.68;;;19.80;94.10;;;;;;4956365;28;20510;-87
2022/07/31 00:22:44;;;;;;;2.10;0.82;;;19.80;94.70;;;;;;4937412;28;20083;-87
2022/07/31 00:25:34;;;;;;;1.95;0.60;;;19.80;94.90;;;;;;4955418;28;20131;-87
2022/07/31 00:28:11;;;;;;;2.08;0.90;;;19.60;94.90;;;;;;4930218;28;20035;-87
2022/07/31 00:30:55;;;;;;;1.95;0.82;;;19.70;94.70;;;;;;4927333;28;20027;-86
2022/07/31 00:33:28;;;;;;;2.22;0.70;;;19.70;94.70;;;;;;4936787;28;20031;-87
2022/07/31 00:36:03;;;;;;;1.85;0.80;;;19.60;94.90;;;;;;4952295;28;20031;-87
2022/07/31 00:38:52;;;;;;;2.55;1.10;;;19.70;95.10;;;;;;4937040;28;20079;-87
2022/07/31 00:44:23;;;;;;;4.25;1.40;;;19.60;96.20;;;;;;4956481;28;20046;-86
2022/07/31 00:47:08;;;;;;;2.95;1.30;;;19.60;96.10;;;;;;4949306;28;20058;-87
2022/07/31 00:49:52;;;;;;;2.80;1.27;;;19.60;96.30;;;;;;4937381;29;20023;-87
2022/07/31 00:53:08;;;;;;;2.20;1.13;;;19.60;96.60;;;;;;4936138;28;20055;-87
2022/07/31 00:55:56;;;;;;;;;;;;;;;;;;;;;
2022/07/31 00:58:30;;;;;;;1.98;0.93;;;19.60;97.30;;;;;;4954556;28;20066;-86
2022/07/31 01:00:59;;;;;;;2.20;1.05;;;19.60;97.70;;;;;;4939480;28;20415;-87
2022/07/31 01:03:36;;;;;;;2.70;1.25;;;19.60;97.80;;;;;;4938327;28;20034;-87
2022/07/31 01:06:06;;;;;;;1.92;1.10;;;19.50;98.10;;;;;;4933183;28;20031;-87
2022/07/31 01:08:51;;;;;;;3.20;1.40;;;19.50;98.50;;;;;;4936702;28;20122;-86
2022/07/31 01:11:27;;;;;;;2.92;1.25;;;19.40;98.80;;;;;;4953149;28;20411;-87
2022/07/31 01:14:08;;;;;;;4.65;1.17;;;19.40;99.10;;;;;;4936977;28;20031;-87
2022/07/31 01:16:35;;;;;;;;;;;19.40;99.30;;;;;;4937520;29;20028;-87
2022/07/31 01:19:28;;;;;;;3.17;1.52;;;19.30;99.80;;;;;;4956302;28;19910;-87
2022/07/31 01:22:18;;;;;;;2.92;1.55;;;19.30;99.90;;;;;;4957073;28;20030;-87
2022/07/31 01:25:39;;;;;;;2.78;1.30;;;19.30;99.90;;;;;;4977575;28;20034;-86
2022/07/31 01:28:53;;;;;;;2.70;1.17;;;19.20;99.90;;;;;;4969585;28;20035;-87
2022/07/31 01:31:43;;;;;;;5.05;1.33;;;19.20;99.90;;;;;;4946325;28;20031;-87
2022/07/31 01:34:29;;;;;;;5.18;1.55;;;19.10;99.90;;;;;;4940408;28;20038;-87
2022/07/31 01:37:38;;;;;;;3.08;1.33;;;19.00;99.90;;;;;;4937827;28;20027;-87
2022/07/31 01:44:19;;;;;;;3.38;1.60;;;18.90;99.90;;;;;;4930337;29;20039;-87
2022/07/31 01:47:06;;;;;;;3.25;1.48;;;18.80;99.90;;;;;;4944126;28;20412;-87
2022/07/31 01:49:44;;;;;;;2.63;1.50;;;18.80;99.90;;;;;;4932996;28;20027;-87
2022/07/31 01:52:16;;;;;;;3.63;1.42;;;18.70;99.90;;;;;;4940264;28;20108;-87
2022/07/31 01:55:51;;;;;;;2.47;1.30;;;18.70;99.90;;;;;;4943222;28;20408;-87
2022/07/31 01:58:21;;;;;;;2.33;1.30;;;18.70;99.90;;;;;;4934600;28;20698;-87
2022/07/31 02:00:57;;;;;;;2.10;1.20;;;18.60;99.90;;;;;;4944128;28;20875;-87
2022/07/31 02:03:59;;;;;;;2.92;1.45;;;18.60;99.90;;;;;;4943219;28;20638;-87
2022/07/31 02:07:19;;;;;;;2.47;1.30;;;18.60;99.90;;;;;;4946274;28;20039;-87
2022/07/31 02:12:48;;;;;;;2.15;1.50;;;18.50;99.90;;;;;;5016711;23;20514;-85
2022/07/31 02:15:15;;;;;;;3.88;1.63;;;18.40;99.90;;;;;;4967365;28;20106;-85
2022/07/31 02:17:44;;;;;;;2.95;1.58;;;18.40;99.90;;;;;;4988592;28;20042;-86
2022/07/31 02:20:11;;;;;;;2.05;1.25;;;18.40;99.90;;;;;;4986706;28;20030;-84
2022/07/31 02:22:37;;;;;;;2.42;1.23;;;18.30;99.90;;;;;;4991917;28;20395;-86
2022/07/31 02:25:04;;;;;;;2.78;1.33;;;18.30;99.90;;;;;;4973786;28;20062;-86
2022/07/31 02:27:30;;;;;;;2.50;1.38;;;18.30;99.90;;;;;;4986640;28;20479;-86
2022/07/31 02:30:01;;;;;;;4.20;1.42;;;18.30;99.90;;;;;;4979534;28;20035;-86
2022/07/31 02:32:28;;;;;;;3.28;1.48;;;18.20;99.90;;;;;;4985637;28;20050;-86
2022/07/31 02:34:56;;;;;;;2.15;1.15;;;18.20;99.90;;;;;;4990494;28;20063;-86
2022/07/31 02:37:23;;;;;;;2.08;1.10;;;18.20;99.90;;;;;;4970222;28;20030;-86
2022/07/31 02:39:51;;;;;;;3.53;1.48;;;18.20;99.90;;;;;;4968674;28;20045;-86
2022/07/31 02:42:18;;;;;;;3.00;1.30;;;18.10;99.90;;;;;;4987528;28;20027;-86
2022/07/31 02:44:45;;;;;;;3.33;1.60;;;18.10;99.90;;;;;;4969839;28;20018;-85
2022/07/31 02:47:12;;;;;;;3.08;1.48;;;18.00;99.90;;;;;;4987918;28;20470;-86
2022/07/31 02:49:38;;;;;;;2.75;1.23;;;18.00;99.90;;;;;;4984490;28;20506;-85
2022/07/31 02:52:05;;;;;;;3.53;1.52;;;18.00;99.90;;;;;;4975762;28;20041;-86
2022/07/31 02:54:33;;;;;;;3.25;1.60;;;17.90;99.90;;;;;;4968473;28;20030;-85
2022/07/31 02:57:00;;;;;;;2.25;1.30;;;17.90;99.90;;;;;;4984835;28;20029;-85
2022/07/31 02:59:27;;;;;;;3.88;1.42;;;;;;;;;;4979602;28;20069;-86
2022/07/31 03:01:53;;;;;;;4.20;1.63;;;17.80;99.90;;;;;;4987323;28;20041;-86
2022/07/31 03:04:19;;;;;;;2.63;1.40;;;17.70;99.90;;;;;;4969064;28;20023;-86
2022/07/31 03:06:47;;;;;;;4.18;1.40;;;17.60;99.90;;;;;;4984599;28;20527;-85
2022/07/31 03:09:16;;;;;;;2.90;1.48;;;17.60;99.90;;;;;;4989659;28;20031;-86
2022/07/31 03:11:42;;;;;;;3.60;1.55;;;17.60;99.90;;;;;;4985138;28;20475;-85
2022/07/31 03:14:12;;;;;;;3.00;1.48;;;17.60;99.90;;;;;;4964803;28;20035;-86
2022/07/31 03:16:40;;;;;;;3.63;1.50;;;17.60;99.90;;;;;;4961554;28;20027;-85
2022/07/31 03:19:07;;;;;;;2.53;1.33;;;17.60;99.90;;;;;;4981470;28;20053;-86
2022/07/31 03:21:34;;;;;;;5.63;1.08;;;17.50;99.90;;;;;;4964012;28;20023;-85
2022/07/31 03:24:01;;;;;;;2.17;1.20;;;17.60;99.90;;;;;;4964711;28;20039;-86
2022/07/31 03:26:27;;;;;;;3.10;1.60;;;17.50;99.90;;;;;;4978753;28;20500;-85
2022/07/31 03:28:53;;;;;;;4.40;1.50;;;17.50;99.90;;;;;;4965248;28;20039;-86
2022/07/31 03:31:19;;;;;;;3.67;1.50;;;17.50;99.90;;;;;;4953407;28;20030;-86
2022/07/31 03:33:45;;;;;;;3.30;1.80;;;17.40;99.90;;;;;;4967516;28;20050;-85
2022/07/31 03:36:11;;;;;;;3.47;1.70;;;17.40;99.90;;;;;;4963595;28;20030;-86
2022/07/31 03:38:37;;;;;;;2.80;1.48;;;17.30;99.90;;;;;;4975624;28;20050;-85
2022/07/31 03:41:03;;;;;;;2.47;1.50;;;17.60;99.90;;;;;;4957718;28;20035;-86
2022/07/31 03:43:31;;;;;;;3.30;1.40;;;17.40;99.90;;;;;;4962932;28;20051;-85
2022/07/31 03:46:01;;;;;;;2.97;1.42;;;16.70;99.90;;;;;;4981315;28;20034;-85
2022/07/31 03:48:28;;;;;;;3.50;1.63;;;17.20;99.90;;;;;;4979463;28;20030;-86
2022/07/31 03:50:54;;;;;;;3.25;1.60;;;17.60;99.90;;;;;;4981364;28;20106;-86
2022/07/31 03:53:24;;;;;;;4.88;1.90;;;17.20;99.90;;;;;;4975157;28;20031;-85
2022/07/31 03:55:50;;;;;;;2.60;1.58;;;17.80;99.90;;;;;;4965200;28;20031;-86
2022/07/31 03:58:17;;;;;;;2.85;1.58;;;17.40;99.90;;;;;;4965140;28;20174;-85
2022/07/31 04:00:44;;;;;;;2.70;1.50;;;16.20;99.90;;;;;;4970042;28;20031;-84
2022/07/31 04:03:12;;;;;;;2.88;1.40;;;17.50;99.90;;;;;;4979456;28;20030;-85
2022/07/31 04:05:41;;;;;;;3.10;1.50;;;17.10;99.90;;;;;;4979640;28;20085;-85
2022/07/31 04:08:10;;;;;;;4.25;1.35;;;17.40;99.90;;;;;;4978870;28;20031;-85
2022/07/31 04:10:36;;;;;;;2.60;1.42;;;17.30;99.90;;;;;;4973927;28;20043;-85
2022/07/31 04:13:05;;;;;;;3.35;1.65;;;17.30;99.90;;;;;;4973135;28;20097;-86
2022/07/31 04:15:31;;;;;;;2.67;1.42;;;17.30;99.90;;;;;;4955979;28;20047;-86
2022/07/31 04:17:57;;;;;;;2.65;1.35;;;17.20;99.90;;;;;;4959123;28;20428;-86
2022/07/31 04:20:23;;;;;;;2.65;1.25;;;17.50;99.90;;;;;;4975799;28;20054;-86
2022/07/31 04:22:49;;;;;;;2.88;1.60;;;17.30;99.90;;;;;;4976478;28;20023;-86
2022/07/31 04:25:15;;;;;;;2.80;1.35;;;17.30;99.90;;;;;;4973556;28;20102;-86
2022/07/31 04:27:41;;;;;;;3.00;1.60;;;16.40;99.90;;;;;;4958102;28;20034;-85
2022/07/31 04:30:07;;;;;;;3.28;1.70;;;17.30;99.90;;;;;;4965185;28;20648;-85
2022/07/31 04:32:35;;;;;;;3.80;1.63;;;17.30;99.90;;;;;;4979036;28;20040;-85
2022/07/31 04:35:01;;;;;;;3.47;1.73;;;17.30;99.90;;;;;;4970463;28;20030;-85
2022/07/31 04:37:27;;;;;;;3.10;1.70;;;17.30;99.90;;;;;;4973935;28;20031;-85
2022/07/31 04:39:54;;;;;;;3.42;1.67;;;17.30;99.90;;;;;;4956017;28;20023;-86
2022/07/31 04:42:19;;;;;;;3.28;1.58;;;17.30;99.90;;;;;;4978526;28;20023;-86
2022/07/31 04:44:45;;;;;;;2.45;1.45;;;17.40;99.90;;;;;;4979126;28;20053;-86
2022/07/31 04:47:12;;;;;;;4.50;1.60;;;17.50;99.90;;;;;;4958009;28;20038;-86
2022/07/31 04:49:38;;;;;;;3.35;1.67;;;17.50;99.90;;;;;;4978677;28;20022;-86
2022/07/31 04:52:07;;;;;;;3.50;1.45;;;17.60;99.90;;;;;;4958539;28;20054;-86
2022/07/31 04:54:33;;;;;;;3.00;1.48;;;17.60;99.90;;;;;;4976800;28;20039;-86
2022/07/31 04:56:59;;;;;;;2.90;1.42;;;17.70;99.90;;;;;;4982121;28;20027;-86
2022/07/31 04:59:25;;;;;;;3.10;1.70;;;17.80;99.90;;;;;;4960608;28;20039;-86
2022/07/31 05:01:53;;;;;;;4.32;1.70;;;17.80;99.90;;;;;;4965654;28;20106;-86
2022/07/31 05:04:19;;;;;;;3.53;1.55;;;17.90;99.90;;;;;;4964970;28;20030;-86
2022/07/31 05:06:47;;;;;;;3.28;1.42;;;18.00;99.90;;;;;;4980001;28;20026;-86
2022/07/31 05:09:21;;;;;;;3.03;1.50;;;18.00;99.90;;;;;;4958415;28;20059;-85
2022/07/31 05:11:47;;;;;;;2.88;1.48;;;18.10;99.90;;;;;;4965601;28;20058;-86
2022/07/31 05:14:15;;;;;;;3.60;1.42;;;18.10;99.90;;;;;;4984542;28;20037;-85
2022/07/31 05:16:41;;;;;;;3.13;1.27;;;18.10;99.90;;;;;;4969656;28;20046;-85
2022/07/31 05:19:07;;;;;;;2.30;1.20;;;18.20;99.90;;;;;;4966126;28;20037;-85
2022/07/31 05:21:33;;;;;;;1.83;1.13;;;18.30;99.90;;;;;;4964921;28;20106;-85
2022/07/31 05:24:00;;;;;;;5.22;1.20;;;18.40;99.90;;;;;;4982711;28;20030;-86
2022/07/31 05:26:27;;;;;;;2.35;1.00;;;18.50;99.90;;;;;;4986957;28;20051;-86
2022/07/31 05:28:54;;;;;;;2.50;1.23;;;18.60;99.90;;;;;;4979101;28;20090;-86
2022/07/31 05:31:21;;;;;;;3.00;1.40;;;18.60;99.90;;;;;;4963210;28;20114;-84
2022/07/31 05:33:48;;;;;;;2.83;1.40;;;18.60;99.90;;;;;;4985660;28;20619;-86
2022/07/31 05:36:18;;;;;;;3.42;1.48;;;18.50;99.90;;;;;;4973222;28;20031;-84
2022/07/31 05:38:44;;;;;;;2.17;1.10;;;18.50;99.90;;;;;;4982369;28;20023;-85
2022/07/31 05:41:12;;;;;;;2.80;1.40;;;18.50;99.90;;;;;;4979772;28;20065;-86
2022/07/31 05:43:41;;;;;;;2.15;0.93;;;18.50;99.90;;;;;;4970794;28;20031;-85
2022/07/31 05:46:07;;;;;;;2.50;1.20;;;18.50;99.90;;;;;;4962929;28;20026;-85
2022/07/31 05:48:33;;;;;;;2.30;1.08;;;18.50;99.90;;;;;;4962044;28;20050;-85
2022/07/31 05:51:00;;;;;;;3.22;1.10;;;18.50;99.90;;;;;;4979625;28;20176;-86
2022/07/31 05:53:26;;;;;;;2.35;1.10;;;18.60;99.90;;;;;;4963542;28;20031;-85
2022/07/31 05:55:51;;;;;;;1.80;1.05;;;18.60;99.90;;;;;;4983309;28;20537;-85
2022/07/31 05:58:19;;;;;;;3.42;1.30;;;18.70;99.90;;;;;;4985388;28;20058;-86
2022/07/31 06:00:46;;;;;;;2.35;1.17;;;18.80;99.90;;;;;;4973606;28;20031;-85
2022/07/31 06:03:12;;;;;;;3.22;1.40;;;18.80;99.90;;;;;;4973646;28;20031;-85
2022/07/31 06:05:39;;;;;;;2.83;1.50;;;18.80;99.90;;;;;;4981778;28;21045;-85
2022/07/31 06:08:06;;;;;;;2.33;1.15;;;18.90;99.90;;;;;;4983085;28;20015;-87
2022/07/31 06:10:31;;;;;;;2.97;1.48;;;18.80;99.90;;;;;;4983267;28;20039;-85
2022/07/31 06:12:57;;;;;;;3.47;1.25;;;18.90;99.90;;;;;;4966938;28;20064;-85
2022/07/31 06:15:23;;;;;;;2.10;1.30;;;19.00;99.90;;;;;;4961418;28;20025;-86
2022/07/31 06:17:49;;;;;;;2.47;1.38;;;19.10;99.90;;;;;;4978289;28;20027;-85
2022/07/31 06:20:14;;;;;;;3.25;1.15;;;19.00;99.90;;;;;;4965068;28;20026;-86
2022/07/31 06:22:44;;;;;;;3.80;1.20;;;19.00;99.90;;;;;;4978126;28;20110;-86
2022/07/31 06:25:11;;;;;;;2.60;1.45;;;19.00;99.90;;;;;;4961443;28;20037;-86
2022/07/31 06:27:37;;;;;;;2.67;1.35;;;19.00;99.90;;;;;;4962492;28;20108;-86
2022/07/31 06:30:04;;;;;;;2.80;1.30;;;19.10;99.90;;;;;;4972054;28;20055;-85
2022/07/31 06:32:34;;;;;;;2.70;1.40;;;19.10;99.90;;;;;;4984299;28;20027;-85
2022/07/31 06:35:00;;;;;;;2.50;1.30;;;19.00;99.90;;;;;;4982962;28;20030;-85
2022/07/31 06:37:26;;;;;;;2.08;1.05;;;19.20;99.90;;;;;;4989655;28;20101;-86
2022/07/31 06:39:53;;;;;;;1.55;1.02;;;19.30;99.90;;;;;;4981461;28;20027;-85
2022/07/31 06:42:24;;;;;;;3.10;1.30;;;19.50;99.90;;;;;;4968611;28;20480;-86
2022/07/31 06:44:50;;;;;;;3.75;1.17;;;19.60;99.90;;;;;;4966823;28;20051;-84
2022/07/31 06:47:18;;;;;;;1.67;1.00;;;19.60;99.90;;;;;;4972676;28;20054;-84
2022/07/31 06:49:44;;;;;;;3.60;1.60;;;19.70;99.90;;;;;;4963598;28;20054;-85
2022/07/31 06:52:10;;;;;;;3.25;1.40;;;19.70;99.90;;;;;;4972266;28;20039;-85
2022/07/31 06:54:36;;;;;;;2.33;1.10;;;19.90;99.90;;;;;;4963132;28;20042;-84
2022/07/31 06:57:02;;;;;;;3.45;1.10;;;19.80;99.90;;;;;;4982507;28;20033;-86
2022/07/31 06:59:28;;;;;;;3.03;1.38;;;20.10;99.90;;;;;;4978944;28;20070;-85
2022/07/31 07:01:54;;;;;;;2.50;1.10;;;20.30;99.90;;;;;;4980433;28;20023;-86
2022/07/31 07:04:20;;;;;;;3.95;1.20;;;20.40;99.90;;;;;;4964505;28;20011;-85
2022/07/31 07:06:48;;;;;;;2.38;1.30;;;20.50;99.90;;;;;;4958561;28;20022;-86
2022/07/31 07:09:14;;;;;;;2.80;1.20;;;20.50;99.90;;;;;;4983306;28;20034;-85
2022/07/31 07:11:40;;;;;;;2.35;1.10;;;20.60;99.90;;;;;;4968844;28;20098;-85
2022/07/31 07:14:09;;;;;;;2.80;1.20;;;20.60;99.90;;;;;;4984190;28;20038;-86
2022/07/31 07:16:35;;;;;;;2.45;1.20;;;20.70;99.90;;;;;;4964376;28;20033;-86
2022/07/31 07:19:00;;;;;;;2.17;1.00;;;20.50;99.90;;;;;;4977276;28;20019;-86
2022/07/31 07:21:26;;;;;;;2.00;1.02;;;20.60;99.90;;;;;;4962058;28;20030;-86
2022/07/31 07:23:52;;;;;;;2.95;1.17;;;20.70;99.90;;;;;;4984370;28;20527;-86
2022/07/31 07:26:18;;;;;;;3.05;1.05;;;20.90;99.90;;;;;;4966853;28;20077;-85
2022/07/31 07:28:47;;;;;;;4.00;1.35;;;21.00;99.90;;;;;;4985036;28;20030;-86
2022/07/31 07:31:13;;;;;;;2.75;1.17;;;21.10;99.90;;;;;;4981874;28;20031;-86
2022/07/31 07:33:40;;;;;;;2.20;1.10;;;21.10;99.90;;;;;;4970353;28;20033;-86
2022/07/31 07:36:05;;;;;;;2.20;1.15;;;21.20;99.90;;;;;;4971573;28;20039;-86
2022/07/31 07:38:31;;;;;;;2.45;1.00;;;21.30;99.90;;;;;;4968892;28;20535;-86
2022/07/31 07:40:57;;;;;;;2.63;1.20;;;21.50;99.90;;;;;;4984900;28;20089;-86
2022/07/31 07:43:22;;;;;;;2.55;1.23;;;21.70;99.90;;;;;;4967271;28;20033;-86
2022/07/31 07:45:48;;;;;;;2.42;0.90;;;21.80;99.90;;;;;;4963727;28;20031;-86
2022/07/31 07:48:14;;;;;;;2.90;0.98;;;22.00;99.90;;;;;;4966484;28;20034;-86
2022/07/31 07:50:39;;;;;;;3.08;0.90;;;22.10;99.90;;;;;;4962891;28;20050;-86
2022/07/31 07:53:05;;;;;;;1.67;0.80;;;22.20;99.90;;;;;;4983740;28;20037;-86
2022/07/31 07:55:31;;;;;;;1.85;0.85;;;22.30;99.90;;;;;;4964212;28;20065;-86
2022/07/31 07:57:56;;;;;;;2.83;0.95;;;22.40;99.90;;;;;;4965157;28;20057;-86
2022/07/31 08:00:24;;;;;;;2.30;0.80;;;22.60;99.90;;;;;;4965824;28;20018;-85
2022/07/31 08:02:50;;;;;;;1.52;0.85;;;22.70;99.90;;;;;;4979996;28;20054;-85
2022/07/31 08:05:19;;;;;;;1.88;0.75;;;22.80;99.90;;;;;;4965803;28;20504;-86
2022/07/31 08:07:45;;;;;;;1.50;0.73;;;23.00;99.90;;;;;;4966553;28;20148;-87
2022/07/31 08:10:18;;;;;;;2.03;1.00;;;23.10;99.90;;;;;;4968975;28;20047;-86
2022/07/31 08:12:47;;;;;;;2.03;0.95;;;23.00;99.90;;;;;;4994993;23;20051;-88
2022/07/31 08:15:24;;;;;;;2.45;1.00;;;23.10;99.90;;;;;;4959472;28;20015;-88
2022/07/31 08:18:00;;;;;;;4.30;1.00;;;23.70;99.90;;;;;;4961595;28;20034;-88
2022/07/31 08:20:28;;;;;;;2.10;0.93;;;23.30;99.90;;;;;;4973096;28;20030;-87
2022/07/31 08:22:56;;;;;;;2.72;0.98;;;23.40;99.90;;;;;;4952441;28;20476;-87
2022/07/31 08:25:27;;;;;;;1.90;0.80;;;23.50;99.90;;;;;;4939486;29;20034;-88
2022/07/31 08:27:53;;;;;;;2.20;1.00;;;23.60;99.90;;;;;;4952607;28;20087;-88
2022/07/31 08:31:11;;;;;;;1.92;0.85;;;23.60;99.90;;;;;;4955623;28;20047;-87
2022/07/31 08:34:18;;;;;;;1.60;0.80;;;23.50;99.90;;;;;;4953172;28;20168;-88
2022/07/31 08:37:12;;;;;;;2.55;0.82;;;23.50;99.90;;;;;;4935869;28;20536;-87
2022/07/31 08:40:01;;;;;;;0.90;0.55;;;24.10;99.90;;;;;;4953820;28;20039;-87
2022/07/31 08:42:50;;;;;;;1.70;0.90;;;24.00;98.90;;;;;;4935767;29;20016;-87
2022/07/31 08:45:47;;;;;;;1.75;0.70;;;24.30;98.70;;;;;;4952706;28;20042;-87
2022/07/31 08:48:18;;;;;;;1.10;0.60;;;24.40;99.20;;;;;;4935270;28;20046;-88
2022/07/31 08:50:45;;;;;;;2.00;0.63;;;24.60;99.10;;;;;;4949946;28;20046;-87
2022/07/31 08:53:14;;;;;;;1.48;0.65;;;24.90;99.40;;;;;;4950842;28;20435;-87
2022/07/31 08:55:46;;;;;;;0.77;0.52;;;25.20;98.30;;;;;;4949536;28;20038;-86
2022/07/31 08:58:11;;;;;;;1.35;0.70;;;25.70;98.80;;;;;;4927620;28;20047;-88
2022/07/31 09:00:42;;;;;;;6.70;0.85;;;25.80;97.40;;;;;;4951248;28;20031;-87
2022/07/31 09:03:13;;;;;;;1.88;0.90;;;25.60;97.60;;;;;;4952791;28;20499;-88
2022/07/31 09:05:38;;;;;;;2.90;0.60;;;25.70;98.10;;;;;;4934248;28;20050;-87
2022/07/31 09:08:05;;;;;;;1.00;0.52;;;26.00;98.50;;;;;;4950361;28;20460;-87
2022/07/31 09:10:44;;;;;;;1.15;0.57;;;26.10;97.60;;;;;;4965151;28;20105;-86
2022/07/31 09:13:33;;;;;;;1.55;0.60;;;26.50;96.80;;;;;;4974033;28;20125;-87
2022/07/31 09:16:06;;;;;;;1.63;0.60;;;26.80;95.90;;;;;;4947246;28;20059;-88
2022/07/31 09:18:36;;;;;;;2.58;0.50;;;26.90;95.20;;;;;;4952603;28;20039;-87
2022/07/31 09:21:24;;;;;;;2.30;0.47;;;27.10;94.70;;;;;;4953397;28;20023;-87
2022/07/31 09:23:59;;;;;;;0.60;0.30;;;27.30;94.30;;;;;;4951463;28;20023;-87
2022/07/31 09:26:43;;;;;;;1.10;0.50;;;27.20;93.40;;;;;;4954505;28;20022;-88
2022/07/31 09:29:17;;;;;;;0.90;0.47;;;27.30;93.80;;;;;;4953572;28;20047;-88
2022/07/31 09:32:22;;;;;;;1.17;0.50;;;27.30;93.20;;;;;;4952858;28;20102;-88
2022/07/31 09:34:48;;;;;;;1.25;0.63;;;27.60;93.10;;;;;;4953287;28;20028;-87
2022/07/31 09:37:49;;;;;;;0.93;0.50;;;27.90;92.00;;;;;;4953685;28;20530;-88
2022/07/31 09:40:47;;;;;;;1.40;0.55;;;28.20;91.80;;;;;;4908568;28;20078;-88
2022/07/31 09:43:23;;;;;;;0.77;0.50;;;28.70;91.80;;;;;;4955656;28;20066;-88
2022/07/31 09:46:30;;;;;;;0.75;0.40;;;29.10;90.40;;;;;;4952949;28;20039;-89
2022/07/31 09:48:59;;;;;;;1.00;0.50;;;29.20;90.20;;;;;;4949063;29;20031;-88
2022/07/31 09:51:41;;;;;;;2.00;0.52;;;29.10;90.00;;;;;;4938018;29;20050;-89
2022/07/31 09:54:32;;;;;;;1.48;0.52;;;28.70;89.10;;;;;;4949537;29;20031;-88
2022/07/31 09:57:08;;;;;;;2.17;0.70;;;28.30;89.20;;;;;;4932717;29;20036;-88
2022/07/31 09:59:37;;;;;;;1.10;0.50;;;27.80;90.40;;;;;;4933270;29;20608;-88
2022/07/31 10:02:33;;;;;;;1.10;0.50;;;27.20;89.50;;;;;;4951302;28;20015;-88
2022/07/31 10:05:05;;;;;;;1.10;0.50;;;27.30;90.70;;;;;;4951065;29;20377;-88
2022/07/31 10:07:46;;;;;;;2.42;0.45;;;27.50;90.40;;;;;;4951928;29;20024;-88
2022/07/31 10:10:12;;;;;;;;;;;28.00;91.30;;;;;;4954622;28;20043;-88
2022/07/31 10:13:04;;;;;;;1.27;0.50;;;28.20;90.50;;;;;;4939920;29;20416;-88
2022/07/31 10:15:41;;;;;;;0.80;0.50;;;28.40;90.30;;;;;;4934614;29;20126;-88
2022/07/31 10:18:15;;;;;;;1.00;0.40;;;28.40;89.70;;;;;;4936152;29;20083;-88
2022/07/31 10:20:48;;;;;;;1.25;0.68;;;28.60;88.50;;;;;;4934334;29;20035;-88
2022/07/31 10:23:16;;;;;;;1.73;0.50;;;28.90;89.30;;;;;;4936054;29;20031;-88
2022/07/31 10:25:49;;;;;;;0.93;0.50;;;29.30;88.60;;;;;;4956652;29;20036;-88
2022/07/31 10:28:18;;;;;;;1.33;0.43;;;29.20;87.20;;;;;;4955244;29;20034;-88
2022/07/31 10:30:47;;;;;;;1.08;0.50;;;29.00;87.00;;;;;;4955398;29;20024;-88
2022/07/31 10:33:13;;;;;;;1.40;0.50;;;28.70;85.10;;;;;;4956552;29;20019;-88
2022/07/31 10:35:54;;;;;;;1.52;0.60;;;28.10;85.00;;;;;;4954807;29;20761;-88
2022/07/31 10:38:32;;;;;;;0.93;0.50;;;28.20;88.30;;;;;;4939894;29;20058;-88
2022/07/31 10:41:22;;;;;;;1.80;0.50;;;27.90;88.00;;;;;;4957080;29;20027;-88
2022/07/31 10:43:56;;;;;;;0.35;0.30;;;27.80;88.90;;;;;;4950563;29;20083;-87
2022/07/31 10:46:37;;;;;;;2.95;0.60;;;27.70;88.00;;;;;;4934494;29;20027;-88
2022/07/31 10:49:02;;;;;;;;;;;27.50;86.30;;;;;;4934870;29;20026;-88
2022/07/31 10:51:28;;;;;;;0.70;0.40;;;27.40;87.30;;;;;;4935400;29;19906;-88
2022/07/31 10:54:04;;;;;;;1.02;0.47;;;27.40;88.70;;;;;;4954980;29;20034;-88
2022/07/31 10:56:54;;;;;;;0.80;0.50;;;27.20;86.80;;;;;;4953907;29;20551;-87
2022/07/31 10:59:29;;;;;;;0.77;0.50;;;27.00;87.40;;;;;;4947509;29;20551;-88
2022/07/31 11:01:58;;;;;;;0.47;0.32;;;26.80;86.50;;;;;;4934076;29;20114;-88
2022/07/31 11:04:31;;;;;;;1.33;0.60;;;26.70;88.70;;;;;;4954624;29;20020;-88
2022/07/31 11:07:00;;;;;;;1.10;0.43;;;26.70;88.50;;;;;;4941196;29;20051;-87
2022/07/31 11:09:29;;;;;;;0.98;0.47;;;26.70;89.10;;;;;;4954701;29;20032;-88
2022/07/31 11:11:55;;;;;;;0.85;0.40;;;26.70;88.00;;;;;;4938931;29;20029;-88
2022/07/31 11:14:45;;;;;;;1.23;0.38;;;26.80;89.70;;;;;;4955588;29;20035;-88
2022/07/31 11:17:13;;;;;;;1.00;0.60;;;26.80;88.40;;;;;;4952881;29;20039;-88
2022/07/31 11:19:56;;;;;;;0.73;0.40;;;26.80;86.80;;;;;;4955068;29;20023;-88
2022/07/31 11:22:45;;;;;;;1.08;0.45;;;26.70;89.10;;;;;;4934915;29;20067;-89
2022/07/31 11:25:12;;;;;;;1.10;0.40;;;26.80;89.10;;;;;;4932282;29;20061;-88
2022/07/31 11:27:54;;;;;;;2.53;0.50;;;26.90;87.60;;;;;;4948011;29;20030;-88
2022/07/31 11:30:27;;;;;;;1.13;0.45;;;26.90;88.00;;;;;;4935508;29;20114;-88
2022/07/31 11:33:34;;;;;;;1.27;0.50;;;26.90;89.60;;;;;;4955454;28;20034;-88
2022/07/31 11:36:28;;;;;;;1.35;0.60;;;27.00;89.20;;;;;;4932327;29;20110;-88
2022/07/31 11:38:56;;;;;;;1.30;0.50;;;27.80;88.20;;;;;;4935963;29;20039;-88
2022/07/31 11:41:43;;;;;;;1.17;0.30;;;28.50;86.50;;;;;;4941498;29;20432;-88
2022/07/31 11:44:08;;;;;;;1.33;0.50;;;28.50;84.80;;;;;;4933780;29;20027;-88
2022/07/31 11:46:53;;;;;;;1.90;0.40;;;28.60;84.20;;;;;;4955201;29;20020;-89
2022/07/31 11:49:31;;;;;;;1.45;0.60;;;29.00;85.00;;;;;;4941222;29;20032;-89
2022/07/31 11:52:08;;;;;;;1.23;0.43;;;29.40;83.10;;;;;;4960081;28;20027;-89
2022/07/31 11:54:38;;;;;;;0.82;0.35;;;29.50;81.30;;;;;;4950307;29;20466;-88
2022/07/31 11:57:10;;;;;;;0.75;0.38;;;29.40;79.80;;;;;;4961443;29;20032;-89
2022/07/31 11:59:38;;;;;;;0.52;0.40;;;29.60;80.50;;;;;;4957014;29;20051;-88
2022/07/31 12:02:12;;;;;;;1.38;0.40;;;29.60;80.60;;;;;;4936370;29;20024;-88
2022/07/31 12:04:47;;;;;;;0.70;0.50;;;29.20;79.30;;;;;;4945414;28;20307;-88
2022/07/31 12:07:13;;;;;;;0.65;0.40;;;29.20;79.80;;;;;;4960526;28;20392;-88
2022/07/31 12:09:43;;;;;;;1.48;0.40;;;29.00;78.80;;;;;;4954050;29;20055;-88
2022/07/31 12:12:10;;;;;;;0.93;0.43;;;29.20;78.70;;;;;;4937483;29;20027;-89
2022/07/31 12:14:38;;;;;;;0.70;0.40;;;29.10;80.50;;;;;;4953435;28;20043;-88
2022/07/31 12:17:06;;;;;;;0.73;0.30;;;29.00;80.20;;;;;;4954956;29;20043;-89
2022/07/31 12:19:34;;;;;;;1.48;0.40;;;29.10;80.60;;;;;;4953810;29;20127;-89
2022/07/31 12:22:03;;;;;;;0.90;0.50;;;29.30;79.50;;;;;;4935958;29;20083;-89
2022/07/31 12:24:38;;;;;;;1.83;0.50;;;30.10;80.20;;;;;;4952375;29;20027;-89
2022/07/31 12:27:08;;;;;;;0.93;0.40;;;30.60;79.90;;;;;;4933761;29;20023;-88
2022/07/31 12:29:37;;;;;;;1.63;0.60;;;31.00;78.30;;;;;;4952573;29;20027;-89
2022/07/31 12:32:08;;;;;;;0.88;0.40;;;31.30;77.70;;;;;;4936687;28;20062;-89
2022/07/31 12:34:50;;;;;;;2.08;0.50;;;31.10;76.80;;;;;;4952217;28;20518;-89
2022/07/31 12:37:25;;;;;;;0.55;0.32;;;31.40;78.50;;;;;;4933421;29;20050;-89
2022/07/31 12:39:54;;;;;;;0.77;0.40;;;32.00;76.00;;;;;;4951519;29;20606;-89
2022/07/31 12:42:24;;;;;;;0.57;0.25;;;31.50;74.30;;;;;;4950785;28;20500;-89
2022/07/31 12:44:52;;;;;;;1.25;0.50;;;31.40;75.40;;;;;;4935179;29;20034;-86
2022/07/31 12:47:37;;;;;;;0.60;0.38;;;31.40;73.80;;;;;;4953737;29;20035;-87
2022/07/31 12:50:03;;;;;;;0.98;0.40;;;31.60;75.90;;;;;;4936939;29;20023;-87
2022/07/31 12:52:30;;;;;;;0.50;0.30;;;31.40;73.70;;;;;;4953112;28;20671;-86
2022/07/31 12:54:56;;;;;;;1.95;0.38;;;31.90;75.10;;;;;;4953873;29;20026;-85
2022/07/31 12:57:22;;;;;;;0.90;0.40;;;31.50;74.90;;;;;;4943770;29;20038;-85
2022/07/31 12:59:47;;;;;;;0.90;0.40;;;31.30;73.40;;;;;;4930326;29;20027;-89
2022/07/31 13:02:20;;;;;;;1.60;0.60;;;30.80;74.00;;;;;;4952502;28;20031;-89
2022/07/31 13:04:56;;;;;;;1.10;0.40;;;30.70;75.70;;;;;;4948745;29;20070;-89
2022/07/31 13:07:21;;;;;;;1.17;0.57;;;29.80;75.80;;;;;;4954209;29;20476;-86
2022/07/31 13:09:50;;;;;;;1.02;0.40;;;29.70;76.90;;;;;;4941058;29;20023;-86
2022/07/31 13:12:35;;;;;;;0.93;0.30;;;29.40;75.70;;;;;;4951260;28;20022;-84
2022/07/31 13:15:11;;;;;;;1.00;0.40;;;29.30;77.80;;;;;;4948759;29;20035;-88
2022/07/31 13:17:45;;;;;;;0.65;0.40;;;29.00;77.20;;;;;;4960170;29;20031;-89
2022/07/31 13:20:11;;;;;;;0.45;0.32;;;29.10;77.60;;;;;;4940984;29;20033;-89
2022/07/31 13:22:40;;;;;;;1.02;0.40;;;29.80;75.00;;;;;;4953732;28;20023;-88
2022/07/31 13:25:08;;;;;;;1.88;0.70;;;30.20;73.80;;;;;;4936427;29;20030;-88
2022/07/31 13:27:34;;;;;;;0.88;0.40;;;30.70;74.20;;;;;;4936108;29;20034;-88
2022/07/31 13:30:08;;;;;;;0.93;0.45;;;31.00;73.90;;;;;;4954416;29;20416;-89